sensor_id;sensor_type;location;lat;lon;timestamp;P1;durP1;ratioP1;P2;durP2;ratioP2
72379;SDS011;60354;47.798;12.472;2022-09-29T00:00:40;1.13;;;0.60;;
72379;SDS011;60354;47.798;12.472;2022-09-29T00:03:06;1.25;;;0.50;;
72379;SDS011;60354;47.798;12.472;2022-09-29T00:05:31;1.63;;;0.60;;
72379;SDS011;60354;47.798;12.472;2022-09-29T00:07:57;0.82;;;0.50;;
72379;SDS011;60354;47.798;12.472;2022-09-29T00:10:23;0.77;;;0.40;;
72379;SDS011;60354;47.798;12.472;2022-09-29T00:12:49;1.73;;;0.40;;
72379;SDS011;60354;47.798;12.472;2022-09-29T00:15:14;0.70;;;0.47;;
72379;SDS011;60354;47.798;12.472;2022-09-29T00:17:40;0.70;;;0.32;;
72379;SDS011;60354;47.798;12.472;2022-09-29T00:20:05;2.08;;;0.50;;
72379;SDS011;60354;47.798;12.472;2022-09-29T00:22:31;1.27;;;0.35;;
72379;SDS011;60354;47.798;12.472;2022-09-29T00:24:57;0.70;;;0.50;;
72379;SDS011;60354;47.798;12.472;2022-09-29T00:27:22;0.80;;;0.43;;
72379;SDS011;60354;47.798;12.472;2022-09-29T00:29:48;0.95;;;0.43;;
72379;SDS011;60354;47.798;12.472;2022-09-29T00:32:13;0.60;;;0.50;;
72379;SDS011;60354;47.798;12.472;2022-09-29T00:34:39;0.43;;;0.40;;
72379;SDS011;60354;47.798;12.472;2022-09-29T00:37:05;0.50;;;0.38;;
72379;SDS011;60354;47.798;12.472;2022-09-29T00:39:30;2.45;;;0.57;;
72379;SDS011;60354;47.798;12.472;2022-09-29T00:41:56;0.85;;;0.40;;
72379;SDS011;60354;47.798;12.472;2022-09-29T00:47:24;1.55;;;0.60;;
72379;SDS011;60354;47.798;12.472;2022-09-29T00:49:52;1.20;;;0.55;;
72379;SDS011;60354;47.798;12.472;2022-09-29T00:52:27;0.68;;;0.50;;
72379;SDS011;60354;47.798;12.472;2022-09-29T00:55:12;0.95;;;0.40;;
72379;SDS011;60354;47.798;12.472;2022-09-29T00:57:47;1.75;;;0.50;;
72379;SDS011;60354;47.798;12.472;2022-09-29T01:00:17;1.88;;;1.35;;
72379;SDS011;60354;47.798;12.472;2022-09-29T01:02:46;1.33;;;0.60;;
72379;SDS011;60354;47.798;12.472;2022-09-29T01:05:18;0.73;;;0.52;;
72379;SDS011;60354;47.798;12.472;2022-09-29T01:07:48;0.85;;;0.50;;
72379;SDS011;60354;47.798;12.472;2022-09-29T01:10:14;2.63;;;0.80;;
72379;SDS011;60354;47.798;12.472;2022-09-29T01:12:42;0.70;;;0.38;;
72379;SDS011;60354;47.798;12.472;2022-09-29T01:15:10;0.82;;;0.45;;
72379;SDS011;60354;47.798;12.472;2022-09-29T01:17:37;0.50;;;0.30;;
72379;SDS011;60354;47.798;12.472;2022-09-29T01:20:09;0.52;;;0.25;;
72379;SDS011;60354;47.798;12.472;2022-09-29T01:28:15;0.30;;;0.28;;
72379;SDS011;60354;47.798;12.472;2022-09-29T01:31:10;0.03;;;0.03;;
72379;SDS011;60354;47.798;12.472;2022-09-29T01:33:56;0.10;;;0.10;;
72379;SDS011;60354;47.798;12.472;2022-09-29T01:47:17;1.05;;;0.20;;
72379;SDS011;60354;47.798;12.472;2022-09-29T01:49:51;0.10;;;0.10;;
72379;SDS011;60354;47.798;12.472;2022-09-29T01:52:23;0.10;;;0.10;;
72379;SDS011;60354;47.798;12.472;2022-09-29T01:54:59;1.42;;;0.20;;
72379;SDS011;60354;47.798;12.472;2022-09-29T01:57:44;0.00;;;0.00;;
72379;SDS011;60354;47.798;12.472;2022-09-29T02:00:15;0.17;;;0.17;;
72379;SDS011;60354;47.798;12.472;2022-09-29T02:05:29;0.10;;;0.10;;
72379;SDS011;60354;47.798;12.472;2022-09-29T02:08:03;0.30;;;0.20;;
72379;SDS011;60354;47.798;12.472;2022-09-29T02:10:38;0.20;;;0.17;;
72379;SDS011;60354;47.798;12.472;2022-09-29T02:13:09;0.00;;;0.00;;
72379;SDS011;60354;47.798;12.472;2022-09-29T02:15:37;0.10;;;0.10;;
72379;SDS011;60354;47.798;12.472;2022-09-29T02:18:12;1.55;;;0.20;;
72379;SDS011;60354;47.798;12.472;2022-09-29T02:20:45;0.20;;;0.20;;
72379;SDS011;60354;47.798;12.472;2022-09-29T02:23:11;0.20;;;0.20;;
72379;SDS011;60354;47.798;12.472;2022-09-29T02:25:38;0.25;;;0.15;;
72379;SDS011;60354;47.798;12.472;2022-09-29T02:28:05;0.35;;;0.20;;
72379;SDS011;60354;47.798;12.472;2022-09-29T02:30:32;0.30;;;0.30;;
72379;SDS011;60354;47.798;12.472;2022-09-29T02:32:58;0.55;;;0.32;;
72379;SDS011;60354;47.798;12.472;2022-09-29T02:35:23;0.20;;;0.20;;
72379;SDS011;60354;47.798;12.472;2022-09-29T02:43:28;0.60;;;0.20;;
72379;SDS011;60354;47.798;12.472;2022-09-29T02:46:06;1.40;;;0.30;;
72379;SDS011;60354;47.798;12.472;2022-09-29T02:49:08;1.65;;;0.30;;
72379;SDS011;60354;47.798;12.472;2022-09-29T02:51:47;0.38;;;0.30;;
72379;SDS011;60354;47.798;12.472;2022-09-29T02:54:53;0.65;;;0.10;;
72379;SDS011;60354;47.798;12.472;2022-09-29T02:59:59;0.10;;;0.10;;
72379;SDS011;60354;47.798;12.472;2022-09-29T03:02:30;0.30;;;0.20;;
72379;SDS011;60354;47.798;12.472;2022-09-29T03:04:55;1.20;;;0.30;;
72379;SDS011;60354;47.798;12.472;2022-09-29T03:07:21;0.13;;;0.10;;
72379;SDS011;60354;47.798;12.472;2022-09-29T03:09:47;0.32;;;0.20;;
72379;SDS011;60354;47.798;12.472;2022-09-29T03:12:13;1.85;;;0.30;;
72379;SDS011;60354;47.798;12.472;2022-09-29T03:14:38;0.20;;;0.20;;
72379;SDS011;60354;47.798;12.472;2022-09-29T03:17:03;0.10;;;0.10;;
72379;SDS011;60354;47.798;12.472;2022-09-29T03:19:29;0.10;;;0.10;;
72379;SDS011;60354;47.798;12.472;2022-09-29T03:21:54;0.65;;;0.30;;
72379;SDS011;60354;47.798;12.472;2022-09-29T03:24:20;0.28;;;0.28;;
72379;SDS011;60354;47.798;12.472;2022-09-29T03:26:45;1.30;;;0.30;;
72379;SDS011;60354;47.798;12.472;2022-09-29T03:29:11;0.35;;;0.25;;
72379;SDS011;60354;47.798;12.472;2022-09-29T03:31:38;0.60;;;0.30;;
72379;SDS011;60354;47.798;12.472;2022-09-29T03:34:05;1.17;;;0.50;;
72379;SDS011;60354;47.798;12.472;2022-09-29T03:36:30;0.45;;;0.40;;
72379;SDS011;60354;47.798;12.472;2022-09-29T03:38:56;2.25;;;0.50;;
72379;SDS011;60354;47.798;12.472;2022-09-29T03:41:22;0.95;;;0.55;;
72379;SDS011;60354;47.798;12.472;2022-09-29T03:43:47;0.40;;;0.40;;
72379;SDS011;60354;47.798;12.472;2022-09-29T03:46:12;0.30;;;0.30;;
72379;SDS011;60354;47.798;12.472;2022-09-29T03:48:38;2.08;;;0.43;;
72379;SDS011;60354;47.798;12.472;2022-09-29T03:51:04;0.68;;;0.38;;
72379;SDS011;60354;47.798;12.472;2022-09-29T03:53:30;2.10;;;0.50;;
72379;SDS011;60354;47.798;12.472;2022-09-29T03:55:57;15.80;;;6.43;;
72379;SDS011;60354;47.798;12.472;2022-09-29T03:58:23;5.22;;;2.60;;
72379;SDS011;60354;47.798;12.472;2022-09-29T04:00:48;4.07;;;1.63;;
72379;SDS011;60354;47.798;12.472;2022-09-29T04:03:14;0.82;;;0.43;;
72379;SDS011;60354;47.798;12.472;2022-09-29T04:05:39;7.53;;;3.10;;
72379;SDS011;60354;47.798;12.472;2022-09-29T04:08:05;3.78;;;2.13;;
72379;SDS011;60354;47.798;12.472;2022-09-29T04:10:34;2.53;;;1.30;;
72379;SDS011;60354;47.798;12.472;2022-09-29T04:13:01;2.47;;;1.23;;
72379;SDS011;60354;47.798;12.472;2022-09-29T04:15:26;1.10;;;0.88;;
72379;SDS011;60354;47.798;12.472;2022-09-29T04:17:52;1.77;;;0.95;;
72379;SDS011;60354;47.798;12.472;2022-09-29T04:20:17;2.25;;;1.30;;
72379;SDS011;60354;47.798;12.472;2022-09-29T04:22:43;5.40;;;1.95;;
72379;SDS011;60354;47.798;12.472;2022-09-29T04:25:08;5.15;;;2.80;;
72379;SDS011;60354;47.798;12.472;2022-09-29T04:27:34;2.88;;;1.77;;
72379;SDS011;60354;47.798;12.472;2022-09-29T04:29:59;2.10;;;1.20;;
72379;SDS011;60354;47.798;12.472;2022-09-29T04:32:24;2.50;;;1.60;;
72379;SDS011;60354;47.798;12.472;2022-09-29T04:34:50;4.53;;;1.50;;
72379;SDS011;60354;47.798;12.472;2022-09-29T04:37:16;1.30;;;1.00;;
72379;SDS011;60354;47.798;12.472;2022-09-29T04:39:41;2.35;;;1.08;;
72379;SDS011;60354;47.798;12.472;2022-09-29T04:42:06;1.65;;;1.10;;
72379;SDS011;60354;47.798;12.472;2022-09-29T04:44:32;3.10;;;1.00;;
72379;SDS011;60354;47.798;12.472;2022-09-29T04:46:57;1.33;;;0.80;;
72379;SDS011;60354;47.798;12.472;2022-09-29T04:49:23;0.63;;;0.47;;
72379;SDS011;60354;47.798;12.472;2022-09-29T04:51:48;1.95;;;0.90;;
72379;SDS011;60354;47.798;12.472;2022-09-29T04:54:14;1.65;;;0.70;;
72379;SDS011;60354;47.798;12.472;2022-09-29T04:56:39;4.38;;;1.50;;
72379;SDS011;60354;47.798;12.472;2022-09-29T04:59:05;3.08;;;1.30;;
72379;SDS011;60354;47.798;12.472;2022-09-29T05:01:30;2.20;;;1.50;;
72379;SDS011;60354;47.798;12.472;2022-09-29T05:03:56;2.78;;;1.90;;
72379;SDS011;60354;47.798;12.472;2022-09-29T05:06:22;4.03;;;2.00;;
72379;SDS011;60354;47.798;12.472;2022-09-29T05:08:48;1.80;;;1.20;;
72379;SDS011;60354;47.798;12.472;2022-09-29T05:11:13;1.38;;;0.80;;
72379;SDS011;60354;47.798;12.472;2022-09-29T05:13:39;0.88;;;0.63;;
72379;SDS011;60354;47.798;12.472;2022-09-29T05:16:04;0.80;;;0.60;;
72379;SDS011;60354;47.798;12.472;2022-09-29T05:18:30;1.00;;;0.60;;
72379;SDS011;60354;47.798;12.472;2022-09-29T05:21:01;0.30;;;0.30;;
72379;SDS011;60354;47.798;12.472;2022-09-29T05:23:30;1.23;;;0.70;;
72379;SDS011;60354;47.798;12.472;2022-09-29T05:25:59;0.65;;;0.40;;
72379;SDS011;60354;47.798;12.472;2022-09-29T05:28:30;1.10;;;0.60;;
72379;SDS011;60354;47.798;12.472;2022-09-29T05:30:59;3.72;;;0.73;;
72379;SDS011;60354;47.798;12.472;2022-09-29T05:33:26;3.03;;;1.80;;
72379;SDS011;60354;47.798;12.472;2022-09-29T05:35:51;6.55;;;3.50;;
72379;SDS011;60354;47.798;12.472;2022-09-29T05:38:17;7.28;;;2.58;;
72379;SDS011;60354;47.798;12.472;2022-09-29T05:40:42;7.80;;;3.80;;
72379;SDS011;60354;47.798;12.472;2022-09-29T05:43:08;5.53;;;2.40;;
72379;SDS011;60354;47.798;12.472;2022-09-29T05:45:33;4.30;;;2.00;;
72379;SDS011;60354;47.798;12.472;2022-09-29T05:47:59;4.45;;;2.10;;
72379;SDS011;60354;47.798;12.472;2022-09-29T05:50:24;2.88;;;1.67;;
72379;SDS011;60354;47.798;12.472;2022-09-29T05:52:50;3.10;;;1.40;;
72379;SDS011;60354;47.798;12.472;2022-09-29T05:55:17;3.42;;;1.75;;
72379;SDS011;60354;47.798;12.472;2022-09-29T05:57:46;4.05;;;2.03;;
72379;SDS011;60354;47.798;12.472;2022-09-29T06:00:13;2.88;;;1.10;;
72379;SDS011;60354;47.798;12.472;2022-09-29T06:02:39;1.02;;;0.70;;
72379;SDS011;60354;47.798;12.472;2022-09-29T06:05:04;1.95;;;0.50;;
72379;SDS011;60354;47.798;12.472;2022-09-29T06:07:30;1.48;;;0.85;;
72379;SDS011;60354;47.798;12.472;2022-09-29T06:09:55;2.03;;;1.60;;
72379;SDS011;60354;47.798;12.472;2022-09-29T06:12:21;1.40;;;1.00;;
72379;SDS011;60354;47.798;12.472;2022-09-29T06:14:46;3.85;;;2.22;;
72379;SDS011;60354;47.798;12.472;2022-09-29T06:17:12;2.88;;;1.15;;
72379;SDS011;60354;47.798;12.472;2022-09-29T06:19:38;1.27;;;0.90;;
72379;SDS011;60354;47.798;12.472;2022-09-29T06:22:03;3.88;;;1.63;;
72379;SDS011;60354;47.798;12.472;2022-09-29T06:24:29;1.83;;;1.20;;
72379;SDS011;60354;47.798;12.472;2022-09-29T06:26:54;2.72;;;1.60;;
72379;SDS011;60354;47.798;12.472;2022-09-29T06:29:20;3.35;;;1.73;;
72379;SDS011;60354;47.798;12.472;2022-09-29T06:31:45;1.30;;;0.95;;
72379;SDS011;60354;47.798;12.472;2022-09-29T06:34:11;0.90;;;0.52;;
72379;SDS011;60354;47.798;12.472;2022-09-29T06:36:43;0.60;;;0.60;;
72379;SDS011;60354;47.798;12.472;2022-09-29T06:39:28;2.60;;;1.00;;
72379;SDS011;60354;47.798;12.472;2022-09-29T06:41:53;3.28;;;1.10;;
72379;SDS011;60354;47.798;12.472;2022-09-29T06:44:24;1.80;;;1.08;;
72379;SDS011;60354;47.798;12.472;2022-09-29T06:46:50;1.50;;;1.40;;
72379;SDS011;60354;47.798;12.472;2022-09-29T06:49:16;0.80;;;0.80;;
72379;SDS011;60354;47.798;12.472;2022-09-29T06:51:43;1.63;;;0.80;;
72379;SDS011;60354;47.798;12.472;2022-09-29T06:54:09;0.60;;;0.60;;
72379;SDS011;60354;47.798;12.472;2022-09-29T06:56:36;1.05;;;0.68;;
72379;SDS011;60354;47.798;12.472;2022-09-29T06:59:01;1.85;;;0.70;;
72379;SDS011;60354;47.798;12.472;2022-09-29T07:01:27;1.05;;;0.60;;
72379;SDS011;60354;47.798;12.472;2022-09-29T07:03:52;1.45;;;0.80;;
72379;SDS011;60354;47.798;12.472;2022-09-29T07:06:18;1.20;;;0.80;;
72379;SDS011;60354;47.798;12.472;2022-09-29T07:08:44;1.35;;;0.93;;
72379;SDS011;60354;47.798;12.472;2022-09-29T07:11:09;2.05;;;0.80;;
72379;SDS011;60354;47.798;12.472;2022-09-29T07:13:35;1.80;;;0.70;;
72379;SDS011;60354;47.798;12.472;2022-09-29T07:16:05;0.60;;;0.60;;
72379;SDS011;60354;47.798;12.472;2022-09-29T07:18:32;6.45;;;2.70;;
72379;SDS011;60354;47.798;12.472;2022-09-29T07:21:02;3.03;;;1.85;;
72379;SDS011;60354;47.798;12.472;2022-09-29T07:23:29;2.92;;;1.58;;
72379;SDS011;60354;47.798;12.472;2022-09-29T07:25:55;4.70;;;1.70;;
72379;SDS011;60354;47.798;12.472;2022-09-29T07:28:20;2.13;;;0.95;;
72379;SDS011;60354;47.798;12.472;2022-09-29T07:30:46;2.25;;;0.90;;
72379;SDS011;60354;47.798;12.472;2022-09-29T07:33:11;2.70;;;1.08;;
72379;SDS011;60354;47.798;12.472;2022-09-29T07:35:37;1.10;;;0.75;;
72379;SDS011;60354;47.798;12.472;2022-09-29T07:38:02;1.45;;;1.10;;
72379;SDS011;60354;47.798;12.472;2022-09-29T07:40:28;2.17;;;0.73;;
72379;SDS011;60354;47.798;12.472;2022-09-29T07:42:53;0.93;;;0.70;;
72379;SDS011;60354;47.798;12.472;2022-09-29T07:45:19;1.50;;;0.70;;
72379;SDS011;60354;47.798;12.472;2022-09-29T07:47:45;0.35;;;0.35;;
72379;SDS011;60354;47.798;12.472;2022-09-29T07:50:10;0.70;;;0.50;;
72379;SDS011;60354;47.798;12.472;2022-09-29T07:52:36;0.88;;;0.50;;
72379;SDS011;60354;47.798;12.472;2022-09-29T07:55:02;0.45;;;0.35;;
72379;SDS011;60354;47.798;12.472;2022-09-29T07:57:28;0.25;;;0.25;;
72379;SDS011;60354;47.798;12.472;2022-09-29T07:59:54;1.33;;;0.70;;
72379;SDS011;60354;47.798;12.472;2022-09-29T08:02:22;0.60;;;0.40;;
72379;SDS011;60354;47.798;12.472;2022-09-29T08:04:47;4.57;;;0.68;;
72379;SDS011;60354;47.798;12.472;2022-09-29T08:07:13;1.33;;;0.85;;
72379;SDS011;60354;47.798;12.472;2022-09-29T08:09:38;1.50;;;0.80;;
72379;SDS011;60354;47.798;12.472;2022-09-29T08:12:04;2.75;;;0.88;;
72379;SDS011;60354;47.798;12.472;2022-09-29T08:14:29;1.48;;;0.50;;
72379;SDS011;60354;47.798;12.472;2022-09-29T08:16:55;1.30;;;0.73;;
72379;SDS011;60354;47.798;12.472;2022-09-29T08:19:20;1.33;;;0.82;;
72379;SDS011;60354;47.798;12.472;2022-09-29T08:21:46;0.68;;;0.30;;
72379;SDS011;60354;47.798;12.472;2022-09-29T08:24:14;0.88;;;0.70;;
72379;SDS011;60354;47.798;12.472;2022-09-29T08:26:41;0.90;;;0.65;;
72379;SDS011;60354;47.798;12.472;2022-09-29T08:29:07;0.50;;;0.50;;
72379;SDS011;60354;47.798;12.472;2022-09-29T08:31:32;0.32;;;0.30;;
72379;SDS011;60354;47.798;12.472;2022-09-29T08:33:58;0.55;;;0.30;;
72379;SDS011;60354;47.798;12.472;2022-09-29T08:36:24;0.35;;;0.32;;
72379;SDS011;60354;47.798;12.472;2022-09-29T08:38:51;0.50;;;0.40;;
72379;SDS011;60354;47.798;12.472;2022-09-29T08:43:55;3.25;;;1.70;;
72379;SDS011;60354;47.798;12.472;2022-09-29T08:48:54;1.52;;;0.85;;
72379;SDS011;60354;47.798;12.472;2022-09-29T08:54:29;1.33;;;1.13;;
72379;SDS011;60354;47.798;12.472;2022-09-29T08:57:00;1.33;;;0.93;;
72379;SDS011;60354;47.798;12.472;2022-09-29T08:59:29;2.75;;;0.70;;
72379;SDS011;60354;47.798;12.472;2022-09-29T09:07:18;2.78;;;0.77;;
72379;SDS011;60354;47.798;12.472;2022-09-29T09:09:54;0.85;;;0.73;;
72379;SDS011;60354;47.798;12.472;2022-09-29T09:25:32;1.42;;;0.90;;
72379;SDS011;60354;47.798;12.472;2022-09-29T09:28:10;0.88;;;0.80;;
72379;SDS011;60354;47.798;12.472;2022-09-29T09:30:41;1.55;;;0.60;;
72379;SDS011;60354;47.798;12.472;2022-09-29T09:33:12;3.33;;;1.65;;
72379;SDS011;60354;47.798;12.472;2022-09-29T09:35:45;1.67;;;1.10;;
72379;SDS011;60354;47.798;12.472;2022-09-29T09:38:15;2.70;;;1.60;;
72379;SDS011;60354;47.798;12.472;2022-09-29T09:40:45;1.52;;;0.95;;
72379;SDS011;60354;47.798;12.472;2022-09-29T09:43:19;0.55;;;0.55;;
72379;SDS011;60354;47.798;12.472;2022-09-29T09:50:54;0.70;;;0.40;;
72379;SDS011;60354;47.798;12.472;2022-09-29T09:53:31;1.70;;;0.45;;
72379;SDS011;60354;47.798;12.472;2022-09-29T09:56:13;0.93;;;0.80;;
72379;SDS011;60354;47.798;12.472;2022-09-29T10:01:19;0.70;;;0.70;;
72379;SDS011;60354;47.798;12.472;2022-09-29T10:03:45;1.25;;;0.80;;
72379;SDS011;60354;47.798;12.472;2022-09-29T10:06:10;5.10;;;0.80;;
72379;SDS011;60354;47.798;12.472;2022-09-29T10:08:37;1.30;;;0.82;;
72379;SDS011;60354;47.798;12.472;2022-09-29T10:11:12;3.17;;;1.58;;
72379;SDS011;60354;47.798;12.472;2022-09-29T10:13:46;7.18;;;2.20;;
72379;SDS011;60354;47.798;12.472;2022-09-29T10:16:16;4.50;;;1.40;;
72379;SDS011;60354;47.798;12.472;2022-09-29T10:18:48;31.48;;;8.82;;
72379;SDS011;60354;47.798;12.472;2022-09-29T10:21:19;22.23;;;5.40;;
72379;SDS011;60354;47.798;12.472;2022-09-29T10:24:18;14.68;;;3.83;;
72379;SDS011;60354;47.798;12.472;2022-09-29T10:26:46;2.13;;;1.00;;
72379;SDS011;60354;47.798;12.472;2022-09-29T10:31:43;4.07;;;1.90;;
72379;SDS011;60354;47.798;12.472;2022-09-29T10:34:23;3.80;;;1.70;;
72379;SDS011;60354;47.798;12.472;2022-09-29T10:37:03;1.83;;;1.02;;
72379;SDS011;60354;47.798;12.472;2022-09-29T10:41:55;1.00;;;0.90;;
72379;SDS011;60354;47.798;12.472;2022-09-29T10:44:21;0.98;;;0.80;;
72379;SDS011;60354;47.798;12.472;2022-09-29T10:46:48;1.10;;;1.00;;
72379;SDS011;60354;47.798;12.472;2022-09-29T10:49:18;2.67;;;1.10;;
72379;SDS011;60354;47.798;12.472;2022-09-29T10:54:23;1.25;;;0.90;;
72379;SDS011;60354;47.798;12.472;2022-09-29T10:56:50;1.60;;;1.00;;
72379;SDS011;60354;47.798;12.472;2022-09-29T10:59:17;1.75;;;0.93;;
72379;SDS011;60354;47.798;12.472;2022-09-29T11:01:47;1.20;;;0.80;;
72379;SDS011;60354;47.798;12.472;2022-09-29T11:04:17;1.10;;;1.00;;
72379;SDS011;60354;47.798;12.472;2022-09-29T11:06:46;0.80;;;0.80;;
72379;SDS011;60354;47.798;12.472;2022-09-29T11:11:51;1.60;;;1.10;;
72379;SDS011;60354;47.798;12.472;2022-09-29T11:17:01;1.33;;;0.98;;
72379;SDS011;60354;47.798;12.472;2022-09-29T11:19:44;1.23;;;1.00;;
72379;SDS011;60354;47.798;12.472;2022-09-29T11:32:47;2.15;;;1.00;;
72379;SDS011;60354;47.798;12.472;2022-09-29T11:43:38;2.35;;;1.10;;
72379;SDS011;60354;47.798;12.472;2022-09-29T11:59:17;2.45;;;1.00;;
72379;SDS011;60354;47.798;12.472;2022-09-29T12:16:32;2.45;;;1.20;;
72379;SDS011;60354;47.798;12.472;2022-09-29T12:19:02;1.30;;;1.10;;
72379;SDS011;60354;47.798;12.472;2022-09-29T12:21:35;1.23;;;1.10;;
72379;SDS011;60354;47.798;12.472;2022-09-29T12:24:03;1.77;;;1.17;;
72379;SDS011;60354;47.798;12.472;2022-09-29T12:26:34;1.38;;;1.20;;
72379;SDS011;60354;47.798;12.472;2022-09-29T12:31:52;1.70;;;1.40;;
72379;SDS011;60354;47.798;12.472;2022-09-29T12:40:14;3.90;;;2.25;;
72379;SDS011;60354;47.798;12.472;2022-09-29T12:45:40;2.25;;;1.90;;
72379;SDS011;60354;47.798;12.472;2022-09-29T12:48:37;1.90;;;1.70;;
72379;SDS011;60354;47.798;12.472;2022-09-29T12:51:08;2.40;;;1.85;;
72379;SDS011;60354;47.798;12.472;2022-09-29T12:56:15;4.30;;;3.08;;
72379;SDS011;60354;47.798;12.472;2022-09-29T12:58:48;5.15;;;2.92;;
72379;SDS011;60354;47.798;12.472;2022-09-29T13:01:22;4.65;;;3.00;;
72379;SDS011;60354;47.798;12.472;2022-09-29T13:09:23;4.47;;;3.80;;
72379;SDS011;60354;47.798;12.472;2022-09-29T13:20:33;4.60;;;3.67;;
72379;SDS011;60354;47.798;12.472;2022-09-29T13:28:36;6.75;;;3.28;;
72379;SDS011;60354;47.798;12.472;2022-09-29T13:31:06;4.32;;;3.60;;
72379;SDS011;60354;47.798;12.472;2022-09-29T13:33:35;3.95;;;3.00;;
72379;SDS011;60354;47.798;12.472;2022-09-29T13:36:02;6.43;;;3.17;;
72379;SDS011;60354;47.798;12.472;2022-09-29T13:38:31;3.83;;;3.20;;
72379;SDS011;60354;47.798;12.472;2022-09-29T13:41:14;4.63;;;3.38;;
72379;SDS011;60354;47.798;12.472;2022-09-29T13:51:46;5.22;;;3.15;;
72379;SDS011;60354;47.798;12.472;2022-09-29T13:56:59;3.03;;;2.67;;
72379;SDS011;60354;47.798;12.472;2022-09-29T13:59:25;3.47;;;2.78;;
72379;SDS011;60354;47.798;12.472;2022-09-29T14:01:53;6.82;;;3.00;;
72379;SDS011;60354;47.798;12.472;2022-09-29T14:07:05;3.17;;;2.42;;
72379;SDS011;60354;47.798;12.472;2022-09-29T14:09:36;3.08;;;2.72;;
72379;SDS011;60354;47.798;12.472;2022-09-29T14:12:09;4.65;;;2.70;;
72379;SDS011;60354;47.798;12.472;2022-09-29T14:14:52;6.93;;;3.38;;
72379;SDS011;60354;47.798;12.472;2022-09-29T14:17:22;5.60;;;3.40;;
72379;SDS011;60354;47.798;12.472;2022-09-29T14:20:05;3.22;;;2.90;;
72379;SDS011;60354;47.798;12.472;2022-09-29T14:22:51;3.33;;;3.00;;
72379;SDS011;60354;47.798;12.472;2022-09-29T14:35:41;3.40;;;2.70;;
72379;SDS011;60354;47.798;12.472;2022-09-29T14:38:16;3.00;;;2.67;;
72379;SDS011;60354;47.798;12.472;2022-09-29T14:49:00;3.05;;;2.75;;
72379;SDS011;60354;47.798;12.472;2022-09-29T14:54:41;3.38;;;2.60;;
72379;SDS011;60354;47.798;12.472;2022-09-29T15:00:16;3.00;;;2.40;;
72379;SDS011;60354;47.798;12.472;2022-09-29T15:02:43;3.97;;;2.15;;
72379;SDS011;60354;47.798;12.472;2022-09-29T15:05:12;2.90;;;2.40;;
72379;SDS011;60354;47.798;12.472;2022-09-29T15:07:47;2.58;;;2.00;;
72379;SDS011;60354;47.798;12.472;2022-09-29T15:10:59;4.40;;;2.55;;
72379;SDS011;60354;47.798;12.472;2022-09-29T15:16:18;4.22;;;2.20;;
72379;SDS011;60354;47.798;12.472;2022-09-29T15:21:39;3.70;;;2.60;;
72379;SDS011;60354;47.798;12.472;2022-09-29T15:27:04;6.65;;;3.00;;
72379;SDS011;60354;47.798;12.472;2022-09-29T15:29:36;7.28;;;3.67;;
72379;SDS011;60354;47.798;12.472;2022-09-29T15:32:02;3.20;;;2.90;;
72379;SDS011;60354;47.798;12.472;2022-09-29T15:34:29;4.25;;;3.15;;
72379;SDS011;60354;47.798;12.472;2022-09-29T15:36:55;5.32;;;3.55;;
72379;SDS011;60354;47.798;12.472;2022-09-29T15:42:16;5.28;;;3.92;;
72379;SDS011;60354;47.798;12.472;2022-09-29T15:49:52;5.07;;;3.38;;
72379;SDS011;60354;47.798;12.472;2022-09-29T15:52:18;8.48;;;3.33;;
72379;SDS011;60354;47.798;12.472;2022-09-29T15:54:47;4.55;;;2.90;;
72379;SDS011;60354;47.798;12.472;2022-09-29T15:57:27;5.65;;;2.97;;
72379;SDS011;60354;47.798;12.472;2022-09-29T16:02:45;3.58;;;2.92;;
72379;SDS011;60354;47.798;12.472;2022-09-29T16:05:17;5.18;;;3.00;;
72379;SDS011;60354;47.798;12.472;2022-09-29T16:10:22;4.30;;;3.10;;
72379;SDS011;60354;47.798;12.472;2022-09-29T16:15:24;3.90;;;3.00;;
72379;SDS011;60354;47.798;12.472;2022-09-29T16:18:06;6.10;;;3.90;;
72379;SDS011;60354;47.798;12.472;2022-09-29T16:20:34;8.18;;;4.70;;
72379;SDS011;60354;47.798;12.472;2022-09-29T16:28:35;3.92;;;2.60;;
72379;SDS011;60354;47.798;12.472;2022-09-29T16:33:42;41.50;;;23.13;;
72379;SDS011;60354;47.798;12.472;2022-09-29T16:38:45;27.75;;;19.17;;
72379;SDS011;60354;47.798;12.472;2022-09-29T16:41:28;25.83;;;19.88;;
72379;SDS011;60354;47.798;12.472;2022-09-29T16:49:29;5.43;;;4.00;;
72379;SDS011;60354;47.798;12.472;2022-09-29T16:52:42;8.15;;;5.43;;
72379;SDS011;60354;47.798;12.472;2022-09-29T16:54:54;6.00;;;4.75;;
72379;SDS011;60354;47.798;12.472;2022-09-29T16:57:48;5.50;;;4.20;;
72379;SDS011;60354;47.798;12.472;2022-09-29T17:00:18;6.53;;;5.00;;
72379;SDS011;60354;47.798;12.472;2022-09-29T17:02:44;6.53;;;4.60;;
72379;SDS011;60354;47.798;12.472;2022-09-29T17:05:10;7.30;;;5.18;;
72379;SDS011;60354;47.798;12.472;2022-09-29T17:07:39;5.43;;;3.55;;
72379;SDS011;60354;47.798;12.472;2022-09-29T17:10:15;5.70;;;2.50;;
72379;SDS011;60354;47.798;12.472;2022-09-29T17:12:42;3.95;;;2.58;;
72379;SDS011;60354;47.798;12.472;2022-09-29T17:15:14;4.28;;;2.60;;
72379;SDS011;60354;47.798;12.472;2022-09-29T17:17:41;4.35;;;2.55;;
72379;SDS011;60354;47.798;12.472;2022-09-29T17:20:12;6.20;;;3.47;;
72379;SDS011;60354;47.798;12.472;2022-09-29T17:22:39;5.55;;;4.13;;
72379;SDS011;60354;47.798;12.472;2022-09-29T17:25:05;5.45;;;4.03;;
72379;SDS011;60354;47.798;12.472;2022-09-29T17:27:31;10.52;;;9.13;;
72379;SDS011;60354;47.798;12.472;2022-09-29T17:30:17;11.55;;;9.07;;
72379;SDS011;60354;47.798;12.472;2022-09-29T17:32:46;7.38;;;4.85;;
72379;SDS011;60354;47.798;12.472;2022-09-29T17:35:13;6.97;;;5.50;;
72379;SDS011;60354;47.798;12.472;2022-09-29T17:37:40;6.80;;;4.82;;
72379;SDS011;60354;47.798;12.472;2022-09-29T17:42:58;6.55;;;4.32;;
72379;SDS011;60354;47.798;12.472;2022-09-29T17:45:25;6.25;;;4.70;;
72379;SDS011;60354;47.798;12.472;2022-09-29T17:47:54;6.53;;;4.60;;
72379;SDS011;60354;47.798;12.472;2022-09-29T17:52:50;5.43;;;3.88;;
72379;SDS011;60354;47.798;12.472;2022-09-29T17:55:16;4.93;;;3.67;;
72379;SDS011;60354;47.798;12.472;2022-09-29T17:57:42;6.07;;;4.38;;
72379;SDS011;60354;47.798;12.472;2022-09-29T18:00:15;9.32;;;5.00;;
72379;SDS011;60354;47.798;12.472;2022-09-29T18:02:43;6.70;;;4.05;;
72379;SDS011;60354;47.798;12.472;2022-09-29T18:05:09;4.47;;;3.33;;
72379;SDS011;60354;47.798;12.472;2022-09-29T18:07:35;6.97;;;3.50;;
72379;SDS011;60354;47.798;12.472;2022-09-29T18:10:00;6.80;;;3.90;;
72379;SDS011;60354;47.798;12.472;2022-09-29T18:12:26;4.78;;;3.33;;
72379;SDS011;60354;47.798;12.472;2022-09-29T18:14:51;5.93;;;3.40;;
72379;SDS011;60354;47.798;12.472;2022-09-29T18:17:17;5.68;;;3.60;;
72379;SDS011;60354;47.798;12.472;2022-09-29T18:19:42;4.28;;;3.38;;
72379;SDS011;60354;47.798;12.472;2022-09-29T18:22:10;5.18;;;3.70;;
72379;SDS011;60354;47.798;12.472;2022-09-29T18:24:35;6.53;;;3.35;;
72379;SDS011;60354;47.798;12.472;2022-09-29T18:27:01;5.40;;;3.75;;
72379;SDS011;60354;47.798;12.472;2022-09-29T18:29:26;5.88;;;3.58;;
72379;SDS011;60354;47.798;12.472;2022-09-29T18:31:55;6.28;;;3.78;;
72379;SDS011;60354;47.798;12.472;2022-09-29T18:34:21;6.68;;;3.50;;
72379;SDS011;60354;47.798;12.472;2022-09-29T18:36:47;6.05;;;3.47;;
72379;SDS011;60354;47.798;12.472;2022-09-29T18:39:13;6.35;;;4.10;;
72379;SDS011;60354;47.798;12.472;2022-09-29T18:41:38;6.18;;;3.60;;
72379;SDS011;60354;47.798;12.472;2022-09-29T18:44:13;6.80;;;3.58;;
72379;SDS011;60354;47.798;12.472;2022-09-29T18:46:40;6.85;;;3.53;;